createdAt,value
2023-03-29T00:00:35.957Z,101973.91
2023-03-29T00:03:17.231Z,101971.20
2023-03-29T00:05:45.407Z,101972.59
2023-03-29T00:08:14.974Z,101977.02
2023-03-29T00:10:43.128Z,101976.10
2023-03-29T00:13:11.292Z,101982.55
2023-03-29T00:15:39.462Z,101978.98
2023-03-29T00:18:07.728Z,101979.20
2023-03-29T00:20:35.990Z,101982.22
2023-03-29T00:23:04.222Z,101981.70
2023-03-29T00:25:32.303Z,101974.78
2023-03-29T00:28:00.575Z,101974.46
2023-03-29T00:30:28.828Z,101975.61
2023-03-29T00:32:57.423Z,101975.91
2023-03-29T00:35:25.791Z,101979.20
2023-03-29T00:37:54.321Z,101976.06
2023-03-29T00:40:22.550Z,101973.45
2023-03-29T00:42:50.669Z,101970.55
2023-03-29T00:45:22.698Z,101967.06
2023-03-29T00:47:57.407Z,101967.38
2023-03-29T00:50:31.033Z,101968.16
2023-03-29T00:53:21.933Z,101977.12
2023-03-29T00:55:56.955Z,101975.66
2023-03-29T00:58:30.808Z,101970.16
2023-03-29T01:01:11.743Z,101968.45
2023-03-29T01:03:48.639Z,101953.34
2023-03-29T01:06:21.076Z,101956.77
2023-03-29T01:09:01.464Z,101966.25
2023-03-29T01:11:35.303Z,101965.64
2023-03-29T01:14:06.495Z,101967.22
2023-03-29T01:19:10.500Z,101973.65
2023-03-29T01:21:49.518Z,101983.11
2023-03-29T01:24:33.958Z,101980.36
2023-03-29T01:27:39.135Z,101971.67
2023-03-29T01:30:17.506Z,101959.11
2023-03-29T01:33:00.472Z,101968.90
2023-03-29T01:35:28.612Z,101969.16
2023-03-29T01:38:10.510Z,101968.27
2023-03-29T01:40:38.641Z,101963.50
2023-03-29T01:43:17.640Z,101961.76
2023-03-29T01:46:19.182Z,101960.51
2023-03-29T01:49:27.932Z,101959.13
2023-03-29T01:52:05.752Z,101956.95
2023-03-29T01:54:41.546Z,101956.75
2023-03-29T01:57:10.774Z,101958.38
2023-03-29T01:59:42.553Z,101963.91
2023-03-29T02:02:14.964Z,101960.03
2023-03-29T02:04:51.867Z,101962.42
2023-03-29T02:07:25.185Z,101963.29
2023-03-29T02:09:54.389Z,101968.04
2023-03-29T02:12:22.828Z,101956.69
2023-03-29T02:14:51.029Z,101977.70
2023-03-29T02:17:25.683Z,101978.77
2023-03-29T02:20:22.687Z,101974.39
2023-03-29T02:23:02.501Z,101969.35
2023-03-29T02:25:32.642Z,101972.14
2023-03-29T02:28:01.823Z,101971.41
2023-03-29T02:30:42.575Z,101973.20
2023-03-29T02:33:59.553Z,101970.94
2023-03-29T02:36:38.403Z,101966.98
2023-03-29T02:39:09.950Z,101965.02
2023-03-29T02:41:39.006Z,101965.48
2023-03-29T02:44:10.765Z,101968.19
2023-03-29T02:46:39.107Z,101965.94
2023-03-29T02:49:07.276Z,101969.52
2023-03-29T02:51:38.561Z,101968.39
2023-03-29T02:54:13.836Z,101969.71
2023-03-29T02:56:43.770Z,101963.91
2023-03-29T02:59:12.808Z,101975.94
2023-03-29T03:01:45.822Z,101969.69
2023-03-29T03:04:15.552Z,101973.91
2023-03-29T03:06:44.030Z,101961.11
2023-03-29T03:09:12.466Z,101970.70
2023-03-29T03:11:42.580Z,101966.51
2023-03-29T03:14:11.038Z,101969.38
2023-03-29T03:16:39.258Z,101968.20
2023-03-29T03:19:07.705Z,101969.32
2023-03-29T03:21:37.824Z,101969.28
2023-03-29T03:24:07.757Z,101969.54
2023-03-29T03:26:38.324Z,101971.82
2023-03-29T03:29:06.650Z,101971.55
2023-03-29T03:31:54.230Z,101973.32
2023-03-29T03:34:40.953Z,101967.49
2023-03-29T03:37:12.071Z,101967.52
2023-03-29T03:39:40.440Z,101973.31
2023-03-29T03:42:09.729Z,101975.47
2023-03-29T03:44:43.311Z,101976.98
2023-03-29T03:47:32.040Z,101980.10
2023-03-29T03:50:09.250Z,101977.86
2023-03-29T03:52:37.518Z,101975.43
2023-03-29T03:55:06.318Z,101970.14
2023-03-29T03:57:48.073Z,101973.60
2023-03-29T04:00:21.429Z,101972.38
2023-03-29T04:03:12.652Z,101972.43
2023-03-29T04:05:44.708Z,101974.51
2023-03-29T04:08:15.003Z,101969.30
2023-03-29T04:11:19.127Z,101978.89
2023-03-29T04:13:47.489Z,101978.81
2023-03-29T04:16:27.518Z,101981.73
2023-03-29T04:18:56.772Z,101980.96
2023-03-29T04:21:25.631Z,101976.58
2023-03-29T04:23:54.211Z,101980.64
2023-03-29T04:26:23.107Z,101977.77
2023-03-29T04:28:57.633Z,101979.10
2023-03-29T04:31:42.042Z,101951.38
2023-03-29T04:34:28.008Z,101976.68
2023-03-29T04:36:58.860Z,101974.63
2023-03-29T04:39:34.056Z,101976.90
2023-03-29T04:42:05.304Z,101973.80
2023-03-29T04:44:35.190Z,101970.11
2023-03-29T04:47:05.159Z,101970.55
2023-03-29T04:49:56.256Z,101969.02
2023-03-29T04:52:33.508Z,101969.91
2023-03-29T04:55:03.352Z,101965.78
2023-03-29T04:57:44.747Z,101970.27
2023-03-29T05:00:27.796Z,101969.12
2023-03-29T05:03:14.749Z,101970.79
2023-03-29T05:05:54.695Z,101970.23
2023-03-29T05:08:22.870Z,101975.55
2023-03-29T05:11:10.958Z,101975.30
2023-03-29T05:13:40.106Z,101984.04
2023-03-29T05:16:08.944Z,101982.66
2023-03-29T05:18:37.159Z,101980.64
2023-03-29T05:21:06.454Z,101979.17
2023-03-29T05:23:35.162Z,101981.46
2023-03-29T05:26:10.069Z,101975.02
2023-03-29T05:28:39.597Z,101980.19
2023-03-29T05:31:08.964Z,101980.40
2023-03-29T05:33:40.097Z,101981.58
2023-03-29T05:36:13.950Z,101979.15
2023-03-29T05:38:46.896Z,101976.81
2023-03-29T05:41:16.166Z,101980.78
2023-03-29T05:43:46.968Z,101977.69
2023-03-29T05:46:15.564Z,101975.83
2023-03-29T05:48:49.116Z,101963.14
2023-03-29T05:51:19.036Z,101972.55
2023-03-29T05:53:47.253Z,101969.79
2023-03-29T05:56:16.500Z,101960.95
2023-03-29T05:58:46.805Z,101972.46
2023-03-29T06:01:18.068Z,101971.48
2023-03-29T06:03:56.465Z,101968.05
2023-03-29T06:06:29.578Z,101970.61
2023-03-29T06:09:01.411Z,101970.13
2023-03-29T06:11:36.916Z,101967.20
2023-03-29T06:14:11.134Z,101970.10
2023-03-29T06:16:47.228Z,101965.02
2023-03-29T06:19:15.630Z,101966.64
2023-03-29T06:21:43.893Z,101971.73
2023-03-29T06:24:14.652Z,101971.30
2023-03-29T06:26:47.278Z,101973.97
2023-03-29T06:29:16.104Z,101949.04
2023-03-29T06:31:44.449Z,101972.15
2023-03-29T06:34:24.102Z,101974.53
2023-03-29T06:37:15.236Z,101965.16
2023-03-29T06:39:43.923Z,101957.89
2023-03-29T06:42:27.301Z,101969.33
2023-03-29T06:45:36.818Z,101978.79
2023-03-29T06:48:08.245Z,101977.80
2023-03-29T06:50:37.038Z,101976.45
2023-03-29T06:53:26.402Z,101981.02
2023-03-29T06:56:05.499Z,101978.67
2023-03-29T06:58:56.925Z,101976.17
2023-03-29T07:01:34.834Z,101973.39
2023-03-29T07:04:12.306Z,101978.39
2023-03-29T07:07:06.198Z,101974.94
2023-03-29T07:09:36.069Z,101967.39
2023-03-29T07:12:23.217Z,101981.58
2023-03-29T07:14:51.550Z,101980.63
2023-03-29T07:17:19.844Z,101977.21
2023-03-29T07:19:48.966Z,101978.00
2023-03-29T07:22:48.348Z,101976.05
2023-03-29T07:25:18.788Z,101971.60
2023-03-29T07:27:47.285Z,101972.09
2023-03-29T07:30:18.529Z,101975.41
2023-03-29T07:32:47.434Z,101967.34
2023-03-29T07:35:26.970Z,101970.02
2023-03-29T07:37:56.009Z,101969.95
2023-03-29T07:40:26.413Z,101966.02
2023-03-29T07:42:58.933Z,101966.30
2023-03-29T07:45:32.120Z,101960.73
2023-03-29T07:48:11.196Z,101958.82
2023-03-29T07:50:53.938Z,101959.32
2023-03-29T07:53:27.278Z,101942.77
2023-03-29T07:55:56.360Z,101954.59
2023-03-29T07:58:44.841Z,101957.89
2023-03-29T08:01:18.712Z,101955.59
2023-03-29T08:04:11.694Z,101950.18
2023-03-29T08:06:58.885Z,101953.11
2023-03-29T08:09:35.274Z,101954.10
2023-03-29T08:12:03.600Z,101954.39
2023-03-29T08:14:36.780Z,101954.19
2023-03-29T08:17:14.629Z,101949.84
2023-03-29T08:19:51.400Z,101950.31
2023-03-29T08:22:23.451Z,101954.04
2023-03-29T08:25:20.654Z,101957.64
2023-03-29T08:27:50.924Z,101953.39
2023-03-29T08:30:28.472Z,101947.69
2023-03-29T08:32:58.188Z,101934.33
2023-03-29T08:35:26.654Z,101941.76
2023-03-29T08:38:06.380Z,101942.31
2023-03-29T08:40:35.434Z,101935.30
2023-03-29T08:43:49.003Z,101930.60
2023-03-29T08:46:45.241Z,101928.31
2023-03-29T08:49:29.726Z,101927.67
2023-03-29T08:52:03.017Z,101923.28
2023-03-29T08:54:45.224Z,101918.48
2023-03-29T08:57:40.591Z,101913.48
2023-03-29T09:00:21.855Z,101913.27
2023-03-29T09:02:53.985Z,101907.09
2023-03-29T09:05:30.177Z,101904.65
2023-03-29T09:08:13.706Z,101902.87
2023-03-29T09:11:16.413Z,101900.25
2023-03-29T09:13:54.180Z,101895.28
2023-03-29T09:16:53.188Z,101896.37
2023-03-29T09:19:51.059Z,101895.23
2023-03-29T09:22:37.477Z,101890.95
2023-03-29T09:25:05.724Z,101889.33
2023-03-29T09:27:43.527Z,101888.44
2023-03-29T09:30:41.946Z,101885.93
2023-03-29T09:33:24.827Z,101881.52
2023-03-29T09:36:17.783Z,101884.21
2023-03-29T09:38:49.809Z,101884.48
2023-03-29T09:41:47.015Z,101882.60
2023-03-29T09:44:30.794Z,101878.15
2023-03-29T09:47:12.615Z,101881.13
2023-03-29T09:49:47.237Z,101876.79
2023-03-29T09:52:17.415Z,101873.19
2023-03-29T09:54:52.535Z,101872.20
2023-03-29T09:57:50.208Z,101867.11
2023-03-29T10:00:20.748Z,101869.41
2023-03-29T10:02:52.975Z,101857.85
2023-03-29T10:05:26.110Z,101863.63
2023-03-29T10:07:59.758Z,101857.92
2023-03-29T10:10:29.343Z,101858.01
2023-03-29T10:13:01.098Z,101859.73
2023-03-29T10:15:30.771Z,101862.86
2023-03-29T10:18:06.858Z,101856.40
2023-03-29T10:20:36.745Z,101857.38
2023-03-29T10:23:08.332Z,101854.84
2023-03-29T10:25:43.000Z,101857.24
2023-03-29T10:28:16.493Z,101853.88
2023-03-29T10:30:52.514Z,101841.97
2023-03-29T10:33:24.736Z,101838.05
2023-03-29T10:35:57.364Z,101836.73
2023-03-29T10:38:29.526Z,101836.02
2023-03-29T10:41:12.205Z,101838.15
2023-03-29T10:43:46.314Z,101834.24
2023-03-29T10:46:32.784Z,101833.36
2023-03-29T10:49:06.343Z,101831.19
2023-03-29T10:51:34.617Z,101821.80
2023-03-29T10:54:05.430Z,101822.95
2023-03-29T10:56:43.191Z,101818.72
2023-03-29T10:59:27.619Z,101821.52
2023-03-29T11:02:14.189Z,101811.14
2023-03-29T11:05:17.918Z,101808.02
2023-03-29T11:08:07.186Z,101801.84
2023-03-29T11:10:53.792Z,101795.18
2023-03-29T11:13:53.515Z,101800.36
2023-03-29T11:16:42.865Z,101788.82
2023-03-29T11:19:44.374Z,101797.67
2023-03-29T11:22:47.893Z,101792.02
2023-03-29T11:25:38.485Z,101785.95
2023-03-29T11:28:29.563Z,101779.94
2023-03-29T11:31:16.925Z,101771.77
2023-03-29T11:34:06.773Z,101774.39
2023-03-29T11:36:50.580Z,101765.05
2023-03-29T11:39:34.861Z,101760.50
2023-03-29T11:42:19.590Z,101761.75
2023-03-29T11:44:54.646Z,101767.91
2023-03-29T11:47:37.453Z,101760.69
2023-03-29T11:50:20.845Z,101755.01
2023-03-29T11:52:56.735Z,101755.14
2023-03-29T11:55:32.259Z,101752.54
2023-03-29T11:58:06.638Z,101748.87
2023-03-29T12:00:37.623Z,101744.37
2023-03-29T12:03:17.718Z,101743.48
2023-03-29T12:05:55.767Z,101737.31
2023-03-29T12:08:44.376Z,101734.55
2023-03-29T12:11:37.466Z,101728.27
2023-03-29T12:14:15.420Z,101719.85
2023-03-29T12:17:09.389Z,101723.16
2023-03-29T12:19:46.819Z,101715.00
2023-03-29T12:22:15.065Z,101724.01
2023-03-29T12:24:50.618Z,101723.92
2023-03-29T12:27:28.588Z,101717.58
2023-03-29T12:30:15.806Z,101715.52
2023-03-29T12:32:57.896Z,101712.35
2023-03-29T12:36:17.459Z,101705.55
2023-03-29T12:39:13.908Z,101703.08
2023-03-29T12:42:17.224Z,101700.55
2023-03-29T12:45:19.269Z,101699.84
2023-03-29T12:47:51.035Z,101691.14
2023-03-29T12:50:28.706Z,101693.41
2023-03-29T12:53:16.788Z,101689.30
2023-03-29T12:55:44.824Z,101690.01
2023-03-29T12:58:40.714Z,101685.48
2023-03-29T13:01:10.790Z,101682.40
2023-03-29T13:03:55.548Z,101681.20
2023-03-29T13:06:51.182Z,101674.48
2023-03-29T13:09:24.098Z,101674.29
2023-03-29T13:11:57.542Z,101668.27
2023-03-29T13:14:30.404Z,101671.45
2023-03-29T13:17:17.826Z,101671.55
2023-03-29T13:20:31.497Z,101668.34
2023-03-29T13:23:27.435Z,101660.69
2023-03-29T13:26:34.662Z,101658.58
2023-03-29T13:29:03.668Z,101642.30
2023-03-29T13:31:46.815Z,101653.27
2023-03-29T13:35:04.654Z,101650.41
2023-03-29T13:38:00.288Z,101647.40
2023-03-29T13:40:31.991Z,101633.18
2023-03-29T13:43:19.323Z,101637.77
2023-03-29T13:45:59.258Z,101630.77
2023-03-29T13:48:29.169Z,101628.92
2023-03-29T13:51:31.834Z,101622.09
2023-03-29T13:54:18.323Z,101622.71
2023-03-29T13:56:55.171Z,101625.56
2023-03-29T13:59:33.779Z,101621.13
2023-03-29T14:02:04.700Z,101620.16
2023-03-29T14:04:43.860Z,101622.43
2023-03-29T14:07:15.687Z,101617.94
2023-03-29T14:09:48.122Z,101613.11
2023-03-29T14:12:17.472Z,101610.70
2023-03-29T14:14:58.251Z,101605.30
2023-03-29T14:17:27.803Z,101610.62
2023-03-29T14:19:59.344Z,101610.38
2023-03-29T14:22:34.052Z,101613.58
2023-03-29T14:25:07.744Z,101616.63
2023-03-29T14:27:37.251Z,101616.98
2023-03-29T14:30:37.138Z,101606.87
2023-03-29T14:33:05.346Z,101614.80
2023-03-29T14:35:33.725Z,101619.63
2023-03-29T14:38:02.518Z,101611.36
2023-03-29T14:40:31.662Z,101593.88
2023-03-29T14:43:06.802Z,101604.40
2023-03-29T14:45:35.500Z,101595.98
2023-03-29T14:48:04.799Z,101593.61
2023-03-29T14:50:33.916Z,101590.18
2023-03-29T14:53:02.322Z,101589.34
2023-03-29T14:55:31.093Z,101594.53
2023-03-29T14:58:17.132Z,101589.37
2023-03-29T15:00:50.212Z,101591.85
2023-03-29T15:03:19.978Z,101591.31
2023-03-29T15:05:52.086Z,101584.52
2023-03-29T15:08:27.472Z,101579.64
2023-03-29T15:10:55.851Z,101579.74
2023-03-29T15:13:25.433Z,101578.86
2023-03-29T15:16:01.596Z,101576.80
2023-03-29T15:18:40.178Z,101572.19
2023-03-29T15:21:10.257Z,101566.92
2023-03-29T15:23:55.042Z,101550.04
2023-03-29T15:26:26.929Z,101559.13
2023-03-29T15:29:03.200Z,101556.77
2023-03-29T15:31:39.734Z,101555.50
2023-03-29T15:34:10.483Z,101556.53
2023-03-29T15:36:42.354Z,101559.51
2023-03-29T15:39:15.732Z,101552.98
2023-03-29T15:41:46.492Z,101551.46
2023-03-29T15:44:23.104Z,101549.16
2023-03-29T15:46:51.290Z,101533.15
2023-03-29T15:49:19.442Z,101546.46
2023-03-29T15:51:47.765Z,101546.23
2023-03-29T15:54:16.130Z,101543.73
2023-03-29T15:57:03.571Z,101537.71
2023-03-29T15:59:32.368Z,101536.96
2023-03-29T16:02:01.146Z,101536.23
2023-03-29T16:04:29.233Z,101521.83
2023-03-29T16:06:57.933Z,101531.08
2023-03-29T16:09:26.028Z,101528.77
2023-03-29T16:11:54.239Z,101527.86
2023-03-29T16:14:23.202Z,101523.09
2023-03-29T16:16:52.570Z,101524.79
2023-03-29T16:19:21.708Z,101528.12
2023-03-29T16:21:50.360Z,101529.45
2023-03-29T16:24:25.125Z,101521.83
2023-03-29T16:26:55.862Z,101512.69
2023-03-29T16:29:25.536Z,101514.90
2023-03-29T16:31:54.363Z,101514.95
2023-03-29T16:34:23.200Z,101514.38
2023-03-29T16:36:53.100Z,101505.16
2023-03-29T16:39:21.602Z,101505.65
2023-03-29T16:41:50.456Z,101508.96
2023-03-29T16:44:23.819Z,101506.29
2023-03-29T16:46:54.440Z,101505.79
2023-03-29T16:49:24.336Z,101502.95
2023-03-29T16:51:52.594Z,101502.23
2023-03-29T16:54:20.743Z,101502.84
2023-03-29T16:56:49.074Z,101503.29
2023-03-29T16:59:17.248Z,101505.48
2023-03-29T17:01:46.052Z,101502.73
2023-03-29T17:04:14.291Z,101503.98
2023-03-29T17:06:42.819Z,101502.05
2023-03-29T17:09:11.066Z,101499.27
2023-03-29T17:11:39.562Z,101503.92
2023-03-29T17:14:07.791Z,101497.27
2023-03-29T17:16:35.930Z,101502.95
2023-03-29T17:19:04.136Z,101501.88
2023-03-29T17:21:32.369Z,101502.56
2023-03-29T17:24:00.455Z,101499.29
2023-03-29T17:26:28.655Z,101499.29
2023-03-29T17:28:56.779Z,101498.80
2023-03-29T17:31:24.956Z,101499.02
2023-03-29T17:33:53.124Z,101502.27
2023-03-29T17:36:24.247Z,101504.36
2023-03-29T17:38:52.516Z,101504.77
2023-03-29T17:41:21.588Z,101495.28
2023-03-29T17:43:51.110Z,101493.42
2023-03-29T17:46:23.043Z,101490.26
2023-03-29T17:48:51.568Z,101492.46
2023-03-29T17:51:20.363Z,101509.17
2023-03-29T17:53:48.492Z,101506.60
2023-03-29T17:56:17.144Z,101503.80
2023-03-29T17:58:45.460Z,101501.67
2023-03-29T18:01:14.528Z,101505.36
2023-03-29T18:03:43.268Z,101498.45
2023-03-29T18:06:12.064Z,101501.16
2023-03-29T18:08:41.650Z,101505.66
2023-03-29T18:11:12.373Z,101506.85
2023-03-29T18:13:41.206Z,101510.33
2023-03-29T18:16:09.938Z,101510.63
2023-03-29T18:18:38.653Z,101512.61
2023-03-29T18:21:10.178Z,101507.19
2023-03-29T18:23:43.354Z,101496.75
2023-03-29T18:26:12.335Z,101495.98
2023-03-29T18:28:41.658Z,101495.50
2023-03-29T18:31:09.985Z,101478.66
2023-03-29T18:33:38.127Z,101491.98
2023-03-29T18:36:10.724Z,101491.73
2023-03-29T18:38:43.410Z,101489.80
2023-03-29T18:41:13.731Z,101493.14
2023-03-29T18:43:43.255Z,101494.83
2023-03-29T18:46:11.541Z,101505.05
2023-03-29T18:48:39.924Z,101504.13
2023-03-29T18:51:10.011Z,101498.20
2023-03-29T18:53:39.342Z,101500.61
2023-03-29T18:56:08.198Z,101499.78
2023-03-29T18:58:36.698Z,101496.61
2023-03-29T19:01:06.355Z,101482.27
2023-03-29T19:03:35.237Z,101503.68
2023-03-29T19:06:04.925Z,101504.49
2023-03-29T19:08:34.623Z,101504.16
2023-03-29T19:11:04.908Z,101499.98
2023-03-29T19:13:33.223Z,101505.83
2023-03-29T19:16:02.037Z,101503.52
2023-03-29T19:18:30.454Z,101501.48
2023-03-29T19:20:58.613Z,101497.99
2023-03-29T19:23:28.387Z,101496.70
2023-03-29T19:25:58.800Z,101492.91
2023-03-29T19:28:27.639Z,101489.28
2023-03-29T19:30:56.886Z,101487.63
2023-03-29T19:33:25.116Z,101484.63
2023-03-29T19:35:53.319Z,101481.14
2023-03-29T19:38:21.788Z,101482.07
2023-03-29T19:40:51.626Z,101475.70
2023-03-29T19:43:20.837Z,101479.23
2023-03-29T19:45:50.800Z,101475.71
2023-03-29T19:48:23.878Z,101442.13
2023-03-29T19:50:52.539Z,101466.80
2023-03-29T19:53:21.348Z,101447.86
2023-03-29T19:55:49.676Z,101458.04
2023-03-29T19:58:17.801Z,101453.55
2023-03-29T20:00:46.822Z,101453.42
2023-03-29T20:03:15.809Z,101446.36
2023-03-29T20:05:44.203Z,101446.17
2023-03-29T20:08:12.391Z,101444.95
2023-03-29T20:10:40.529Z,101436.81
2023-03-29T20:13:08.723Z,101430.13
2023-03-29T20:15:37.130Z,101429.20
2023-03-29T20:18:06.094Z,101423.36
2023-03-29T20:20:35.807Z,101421.22
2023-03-29T20:23:05.415Z,101413.52
2023-03-29T20:25:36.311Z,101412.48
2023-03-29T20:28:04.885Z,101408.56
2023-03-29T20:30:33.245Z,101406.00
2023-03-29T20:33:01.498Z,101403.09
2023-03-29T20:35:29.661Z,101400.80
2023-03-29T20:37:57.751Z,101396.80
2023-03-29T20:40:26.077Z,101392.69
2023-03-29T20:42:54.372Z,101394.37
2023-03-29T20:45:22.567Z,101386.33
2023-03-29T20:47:57.696Z,101395.36
2023-03-29T20:50:26.635Z,101394.14
2023-03-29T20:52:55.910Z,101387.13
2023-03-29T20:55:24.715Z,101383.57
2023-03-29T20:57:59.340Z,101386.52
2023-03-29T21:00:30.078Z,101378.92
2023-03-29T21:03:03.554Z,101374.28
2023-03-29T21:05:33.754Z,101373.03
2023-03-29T21:08:02.875Z,101372.11
2023-03-29T21:10:31.208Z,101373.99
2023-03-29T21:13:02.739Z,101372.49
2023-03-29T21:15:32.133Z,101366.75
2023-03-29T21:18:00.411Z,101363.45
2023-03-29T21:20:28.538Z,101357.59
2023-03-29T21:22:57.197Z,101358.35
2023-03-29T21:25:25.451Z,101356.46
2023-03-29T21:27:53.595Z,101357.92
2023-03-29T21:30:21.946Z,101356.73
2023-03-29T21:32:50.136Z,101349.48
2023-03-29T21:35:18.346Z,101350.06
2023-03-29T21:37:46.476Z,101343.39
2023-03-29T21:40:14.601Z,101348.58
2023-03-29T21:42:42.703Z,101346.36
2023-03-29T21:45:11.487Z,101345.15
2023-03-29T21:47:39.908Z,101337.04
2023-03-29T21:50:08.327Z,101338.39
2023-03-29T21:52:37.892Z,101332.30
2023-03-29T21:55:06.836Z,101330.49
2023-03-29T21:57:35.236Z,101315.42
2023-03-29T22:00:11.019Z,101317.14
2023-03-29T22:02:40.482Z,101328.27
2023-03-29T22:05:09.272Z,101318.25
2023-03-29T22:07:40.377Z,101338.52
2023-03-29T22:10:12.211Z,101331.70
2023-03-29T22:12:41.524Z,101329.92
2023-03-29T22:15:15.053Z,101327.95
2023-03-29T22:17:43.189Z,101324.00
2023-03-29T22:20:14.609Z,101319.91
2023-03-29T22:22:49.884Z,101312.61
2023-03-29T22:25:19.387Z,101313.27
2023-03-29T22:27:48.642Z,101310.51
2023-03-29T22:30:17.946Z,101293.52
2023-03-29T22:32:46.183Z,101303.53
2023-03-29T22:35:14.567Z,101287.36
2023-03-29T22:37:45.891Z,101303.26
2023-03-29T22:40:14.180Z,101299.02
2023-03-29T22:42:42.530Z,101297.71
2023-03-29T22:45:11.131Z,101300.57
2023-03-29T22:47:39.454Z,101302.35
2023-03-29T22:50:08.361Z,101300.10
2023-03-29T22:52:36.677Z,101298.48
2023-03-29T22:55:05.138Z,101292.50
2023-03-29T22:57:33.604Z,101293.01
2023-03-29T23:00:02.318Z,101292.22
2023-03-29T23:02:30.578Z,101287.67
2023-03-29T23:04:58.751Z,101289.65
2023-03-29T23:07:28.178Z,101284.54
2023-03-29T23:09:56.621Z,101285.10
2023-03-29T23:12:24.711Z,101286.35
2023-03-29T23:14:53.197Z,101283.80
2023-03-29T23:17:21.520Z,101281.05
2023-03-29T23:19:49.718Z,101281.32
2023-03-29T23:22:17.786Z,101274.45
2023-03-29T23:24:47.437Z,101277.09
2023-03-29T23:27:16.180Z,101274.76
2023-03-29T23:29:45.753Z,101275.67
2023-03-29T23:32:15.782Z,101272.48
2023-03-29T23:34:44.633Z,101265.60
2023-03-29T23:37:12.864Z,101261.94
2023-03-29T23:39:41.708Z,101262.15
2023-03-29T23:42:10.651Z,101260.63
2023-03-29T23:44:38.723Z,101258.39
2023-03-29T23:47:07.263Z,101255.34
2023-03-29T23:49:36.342Z,101255.11
2023-03-29T23:52:04.933Z,101250.13
2023-03-29T23:54:33.093Z,101248.30
2023-03-29T23:57:01.294Z,101243.74
2023-03-29T23:59:29.998Z,101239.79
